Time;durP1;ratioP1;P1;durP2;ratioP2;P2;SDS_P1;SDS_P2;PMS_P1;PMS_P2;Temp;Humidity;BMP_temperature;BMP_pressure;BME280_temperature;BME280_humidity;BME280_pressure;Samples;Min_cycle;Max_cycle;Signal;HPM_P1;HPM_P2
2021/11/20 00:00:23;;;;;;;96.63;47.03;;;10.50;99.90;;;;;;5110876;28;20457;-68
2021/11/20 00:02:50;;;;;;;90.30;44.47;;;10.40;99.90;;;;;;5108788;28;20516;-68
2021/11/20 00:05:20;;;;;;;87.88;46.53;;;10.50;99.90;;;;;;5110560;28;20059;-66
2021/11/20 00:07:46;;;;;;;83.68;45.67;;;10.40;99.90;;;;;;5109268;28;20406;-67
2021/11/20 00:10:14;;;;;;;89.93;44.25;;;10.50;99.90;;;;;;5110269;28;20062;-66
2021/11/20 00:12:41;;;;;;;91.03;44.67;;;10.40;99.90;;;;;;5107639;28;20016;-66
2021/11/20 00:15:10;;;;;;;86.05;44.85;;;10.40;99.90;;;;;;5096096;28;20051;-68
2021/11/20 00:17:35;;;;;;;96.45;45.58;;;10.40;99.90;;;;;;5096437;28;20114;-67
2021/11/20 00:20:02;;;;;;;88.38;43.88;;;10.40;99.90;;;;;;5096398;28;20062;-66
2021/11/20 00:22:32;;;;;;;82.50;43.85;;;10.40;99.90;;;;;;5096836;28;20020;-66
2021/11/20 00:25:03;;;;;;;77.75;43.22;;;10.40;99.90;;;;;;5096877;28;20012;-66
2021/11/20 00:27:34;;;;;;;86.88;44.00;;;10.40;99.90;;;;;;5096554;28;20016;-66
2021/11/20 00:30:11;;;;;;;90.88;43.25;;;10.40;99.90;;;;;;5096766;28;20024;-66
2021/11/20 00:32:40;;;;;;;79.50;41.58;;;10.50;99.90;;;;;;5096727;28;20024;-66
2021/11/20 00:35:09;;;;;;;78.50;41.63;;;10.50;99.90;;;;;;5078356;28;20054;-66
2021/11/20 00:37:35;;;;;;;83.85;42.17;;;10.50;99.90;;;;;;5095198;28;20073;-66
2021/11/20 00:40:02;;;;;;;83.57;43.28;;;10.50;99.90;;;;;;5096294;28;20561;-66
2021/11/20 00:42:27;;;;;;;81.57;41.28;;;10.50;99.90;;;;;;5096438;28;20453;-66
2021/11/20 00:44:53;;;;;;;76.05;41.65;;;10.50;99.90;;;;;;5096194;28;20024;-66
2021/11/20 00:47:19;;;;;;;83.78;42.20;;;10.50;99.90;;;;;;5096417;28;20469;-68
2021/11/20 00:49:45;;;;;;;78.72;42.78;;;10.50;99.90;;;;;;5096461;28;20016;-68
2021/11/20 00:52:11;;;;;;;86.57;43.53;;;10.50;99.90;;;;;;5096356;28;20377;-68
2021/11/20 00:54:39;;;;;;;83.93;43.55;;;10.50;99.90;;;;;;5096309;28;20027;-68
2021/11/20 00:57:06;;;;;;;87.72;43.47;;;10.50;99.90;;;;;;5095977;28;20028;-68
2021/11/20 00:59:31;;;;;;;88.90;44.30;;;10.50;99.90;;;;;;5095930;28;20020;-68
2021/11/20 01:02:00;;;;;;;89.43;43.45;;;10.50;99.90;;;;;;5095617;28;20043;-68
2021/11/20 01:04:27;;;;;;;91.88;44.38;;;10.50;99.90;;;;;;5095826;28;20047;-66
2021/11/20 01:06:53;;;;;;;82.80;43.75;;;10.50;99.90;;;;;;5094898;28;20012;-68
2021/11/20 01:09:24;;;;;;;84.10;43.50;;;10.50;99.90;;;;;;5094192;28;20016;-68
2021/11/20 01:11:53;;;;;;;91.97;43.35;;;10.50;99.90;;;;;;5094513;28;20546;-68
2021/11/20 01:14:21;;;;;;;92.60;45.78;;;10.50;99.90;;;;;;5095652;28;20062;-68
2021/11/20 01:16:49;;;;;;;91.25;46.17;;;10.50;99.90;;;;;;5094697;28;20039;-68
2021/11/20 01:19:15;;;;;;;93.15;46.42;;;10.50;99.90;;;;;;5095807;28;20024;-68
2021/11/20 01:21:42;;;;;;;87.97;44.83;;;10.50;99.90;;;;;;5094253;28;20440;-67
2021/11/20 01:24:09;;;;;;;91.75;45.88;;;10.50;99.90;;;;;;5093623;28;20031;-68
2021/11/20 01:26:36;;;;;;;91.00;46.30;;;10.50;99.90;;;;;;5076408;28;20050;-67
2021/11/20 01:29:03;;;;;;;88.63;46.67;;;10.50;99.90;;;;;;5093835;28;20025;-68
2021/11/20 01:31:31;;;;;;;83.78;45.25;;;10.50;99.90;;;;;;5095039;28;20028;-68
2021/11/20 01:33:57;;;;;;;92.10;46.83;;;10.50;99.90;;;;;;5095254;28;20021;-67
2021/11/20 01:36:28;;;;;;;93.47;46.05;;;10.50;99.90;;;;;;5095491;28;20028;-67
2021/11/20 01:38:56;;;;;;;93.68;46.42;;;10.50;99.90;;;;;;5095208;28;20491;-67
2021/11/20 01:41:25;;;;;;;98.15;48.88;;;10.50;99.90;;;;;;5093532;28;20032;-66
2021/11/20 01:43:53;;;;;;;90.55;45.05;;;10.50;99.90;;;;;;5095403;28;20023;-68
2021/11/20 01:46:23;;;;;;;88.43;45.20;;;10.50;99.90;;;;;;5095040;28;20024;-66
2021/11/20 01:49:09;;;;;;;88.57;46.25;;;10.50;99.90;;;;;;5095260;28;20586;-67
2021/11/20 01:51:40;;;;;;;88.03;45.45;;;10.50;99.90;;;;;;5095224;28;20023;-66
2021/11/20 01:54:45;;;;;;;97.18;46.72;;;10.50;99.90;;;;;;5093999;28;20062;-67
2021/11/20 01:57:38;;;;;;;87.78;45.30;;;10.50;99.90;;;;;;5093208;28;20393;-67
2021/11/20 02:03:25;;;;;;;92.47;46.45;;;10.50;99.90;;;;;;5112164;27;20384;-66
2021/11/20 02:06:13;;;;;;;94.25;47.97;;;10.50;99.90;;;;;;5110437;28;20024;-67
2021/11/20 02:09:00;;;;;;;88.82;44.92;;;10.50;99.90;;;;;;5111488;28;20469;-67
2021/11/20 02:11:33;;;;;;;90.30;47.83;;;10.50;99.90;;;;;;5110691;28;20024;-66
2021/11/20 02:13:59;;;;;;;;;;;10.50;99.90;;;;;;5110429;28;20032;-66
2021/11/20 02:16:31;;;;;;;96.30;45.53;;;10.50;99.90;;;;;;5111198;28;19904;-68
2021/11/20 02:19:00;;;;;;;92.85;48.05;;;10.50;99.90;;;;;;5111457;28;20050;-67
2021/11/20 02:21:49;;;;;;;91.80;45.72;;;10.50;99.90;;;;;;5111601;28;20020;-67
2021/11/20 02:32:22;;;;;;;90.53;47.42;;;10.50;99.90;;;;;;5112202;27;20310;-67
2021/11/20 02:34:51;;;;;;;94.88;47.72;;;10.50;99.90;;;;;;5111943;28;20024;-68
2021/11/20 02:37:18;;;;;;;92.63;46.53;;;10.50;99.90;;;;;;5111594;28;20016;-66
2021/11/20 02:39:45;;;;;;;92.13;47.38;;;10.50;99.90;;;;;;5111291;28;20019;-68
2021/11/20 02:42:15;;;;;;;91.97;47.10;;;10.50;99.90;;;;;;5111806;28;20465;-68
2021/11/20 02:44:41;;;;;;;87.88;46.78;;;10.60;99.90;;;;;;5111743;28;20027;-68
2021/11/20 02:47:36;;;;;;;82.05;45.53;;;10.60;99.90;;;;;;5111705;28;20034;-68
2021/11/20 02:50:04;;;;;;;89.70;47.13;;;10.50;99.90;;;;;;5111026;28;20024;-68
2021/11/20 02:52:30;;;;;;;87.30;46.30;;;10.50;99.90;;;;;;5110392;28;20457;-66
2021/11/20 02:54:56;;;;;;;89.82;47.13;;;10.50;99.90;;;;;;5111572;28;20475;-68
2021/11/20 02:57:28;;;;;;;88.07;46.38;;;10.50;99.90;;;;;;5111253;28;20043;-68
2021/11/20 02:59:54;;;;;;;79.97;43.97;;;10.50;99.90;;;;;;5111482;28;20016;-68
2021/11/20 03:02:20;;;;;;;87.05;46.03;;;10.50;99.90;;;;;;5110161;28;20031;-67
2021/11/20 03:04:46;;;;;;;85.93;46.72;;;10.50;99.90;;;;;;5126995;28;20129;-68
2021/11/20 03:07:12;;;;;;;84.85;46.22;;;10.50;99.90;;;;;;5111324;28;20034;-67
2021/11/20 03:09:39;;;;;;;87.35;45.28;;;10.50;99.90;;;;;;5110132;28;20095;-67
2021/11/20 03:12:08;;;;;;;81.97;45.03;;;10.50;99.90;;;;;;5111181;28;20028;-67
2021/11/20 03:14:35;;;;;;;80.28;44.35;;;10.50;99.90;;;;;;5111185;28;20016;-67
2021/11/20 03:17:04;;;;;;;85.10;44.60;;;10.50;99.90;;;;;;5111134;28;20043;-67
2021/11/20 03:19:34;;;;;;;88.82;46.70;;;10.50;99.90;;;;;;5111125;28;20098;-68
2021/11/20 03:22:04;;;;;;;90.47;46.15;;;10.40;99.90;;;;;;5109275;28;20037;-66
2021/11/20 03:24:30;;;;;;;92.80;46.83;;;10.50;99.90;;;;;;5110463;28;20027;-68
2021/11/20 03:26:57;;;;;;;87.07;46.20;;;10.40;99.90;;;;;;5109512;28;20119;-66
2021/11/20 03:29:25;;;;;;;85.50;44.70;;;10.40;99.90;;;;;;5110907;28;20020;-67
2021/11/20 03:31:52;;;;;;;84.22;46.63;;;10.50;99.90;;;;;;5110214;28;20048;-68
2021/11/20 03:34:19;;;;;;;88.22;45.53;;;10.50;99.90;;;;;;5110285;28;20020;-67
2021/11/20 03:36:45;;;;;;;87.28;43.67;;;10.50;99.90;;;;;;5110799;28;20020;-67
2021/11/20 03:39:11;;;;;;;90.75;45.00;;;10.40;99.90;;;;;;5110488;28;20024;-68
2021/11/20 03:41:37;;;;;;;86.40;44.58;;;10.50;99.90;;;;;;5109051;28;20024;-67
2021/11/20 03:44:03;;;;;;;88.63;43.97;;;10.40;99.90;;;;;;5096729;28;20028;-67
2021/11/20 03:46:28;;;;;;;83.95;45.15;;;10.50;99.90;;;;;;5096754;28;20024;-67
2021/11/20 03:48:54;;;;;;;88.90;46.20;;;10.50;99.90;;;;;;5096962;28;20441;-67
2021/11/20 03:51:20;;;;;;;79.72;44.42;;;10.50;99.90;;;;;;5095908;28;20031;-67
2021/11/20 03:53:45;;;;;;;84.47;45.60;;;10.40;99.90;;;;;;5078203;28;20354;-67
2021/11/20 03:56:12;;;;;;;87.97;45.20;;;10.40;99.90;;;;;;5095376;28;20030;-67
2021/11/20 03:58:38;;;;;;;82.20;44.03;;;10.50;99.90;;;;;;5096806;28;20023;-67
2021/11/20 04:01:08;;;;;;;88.85;45.97;;;10.40;99.90;;;;;;5094933;28;20396;-67
2021/11/20 04:03:36;;;;;;;82.25;45.55;;;10.50;99.90;;;;;;5096662;28;20024;-67
2021/11/20 04:06:02;;;;;;;84.18;44.28;;;10.50;99.90;;;;;;5096623;28;20120;-67
2021/11/20 04:08:28;;;;;;;81.68;42.15;;;10.40;99.90;;;;;;5096300;28;20055;-67
2021/11/20 04:10:56;;;;;;;79.00;43.42;;;10.40;99.90;;;;;;5095010;28;20062;-67
2021/11/20 04:13:22;;;;;;;80.43;43.83;;;10.40;99.90;;;;;;5095013;28;20034;-67
2021/11/20 04:15:49;;;;;;;78.65;42.33;;;10.40;99.90;;;;;;5096465;28;20017;-67
2021/11/20 04:18:15;;;;;;;82.72;43.53;;;10.40;99.90;;;;;;5094967;28;20453;-67
2021/11/20 04:20:41;;;;;;;83.13;44.17;;;10.40;99.90;;;;;;5096356;28;20027;-67
2021/11/20 04:23:07;;;;;;;77.85;42.40;;;10.40;99.90;;;;;;5096312;28;20031;-66
2021/11/20 04:25:33;;;;;;;81.05;42.13;;;10.30;99.90;;;;;;5094790;28;20047;-67
2021/11/20 04:28:00;;;;;;;74.78;41.25;;;10.30;99.90;;;;;;5094967;28;20029;-67
2021/11/20 04:30:25;;;;;;;82.32;42.63;;;10.30;99.90;;;;;;5095594;28;20067;-67
2021/11/20 04:32:52;;;;;;;80.40;42.35;;;10.30;99.90;;;;;;5096101;28;20128;-67
2021/11/20 04:35:20;;;;;;;76.70;40.92;;;10.30;99.90;;;;;;5096073;28;20030;-67
2021/11/20 04:37:46;;;;;;;86.35;43.75;;;10.30;99.90;;;;;;5094595;28;20024;-67
2021/11/20 04:40:13;;;;;;;79.82;41.85;;;10.30;99.90;;;;;;5095966;28;20369;-67
2021/11/20 04:42:38;;;;;;;77.22;40.53;;;10.30;99.90;;;;;;5095868;28;20477;-67
2021/11/20 04:45:06;;;;;;;76.60;42.65;;;10.30;99.90;;;;;;5094040;28;20021;-67
2021/11/20 04:47:32;;;;;;;80.47;41.15;;;10.30;99.90;;;;;;5095834;28;20103;-67
2021/11/20 04:49:58;;;;;;;87.15;42.47;;;10.30;99.90;;;;;;5094234;28;20127;-67
2021/11/20 04:52:23;;;;;;;80.38;42.95;;;10.30;99.90;;;;;;5094727;28;20039;-67
2021/11/20 04:54:49;;;;;;;76.55;42.95;;;10.30;99.90;;;;;;5094709;28;20047;-67
2021/11/20 04:57:14;;;;;;;79.55;42.00;;;10.20;99.90;;;;;;5095370;28;20508;-67
2021/11/20 04:59:40;;;;;;;77.63;41.45;;;10.20;99.90;;;;;;5095611;28;20103;-68
2021/11/20 05:02:05;;;;;;;77.20;40.90;;;10.20;99.90;;;;;;5095262;28;20020;-68
2021/11/20 05:04:32;;;;;;;78.80;41.63;;;10.30;99.90;;;;;;5095529;28;20430;-67
2021/11/20 05:06:57;;;;;;;79.15;41.63;;;10.20;99.90;;;;;;5094192;28;20377;-68
2021/11/20 05:09:23;;;;;;;73.72;41.30;;;10.20;99.90;;;;;;5076953;28;20028;-68
2021/11/20 05:11:49;;;;;;;74.35;40.60;;;10.20;99.90;;;;;;5095315;28;20048;-67
2021/11/20 05:14:16;;;;;;;75.63;40.63;;;10.20;99.90;;;;;;5095309;28;20074;-68
2021/11/20 05:16:42;;;;;;;74.72;39.38;;;10.20;99.90;;;;;;5095260;28;20024;-68
2021/11/20 05:19:07;;;;;;;80.85;40.80;;;10.20;99.90;;;;;;5094950;28;20030;-68
2021/11/20 05:21:33;;;;;;;75.07;41.28;;;10.20;99.90;;;;;;5094907;28;20472;-68
2021/11/20 05:23:59;;;;;;;78.40;41.13;;;10.20;99.90;;;;;;5095152;28;20079;-68
2021/11/20 05:26:25;;;;;;;80.13;41.22;;;10.20;99.90;;;;;;5095090;28;20392;-68
2021/11/20 05:29:00;;;;;;;79.55;41.55;;;10.20;99.90;;;;;;5093278;28;20124;-68
2021/11/20 05:31:25;;;;;;;80.40;40.15;;;10.20;99.90;;;;;;5094313;28;20044;-68
2021/11/20 05:33:53;;;;;;;76.90;41.45;;;10.10;99.90;;;;;;5094962;28;20074;-68
2021/11/20 05:36:25;;;;;;;80.55;41.78;;;10.10;99.90;;;;;;5094674;28;20020;-68
2021/11/20 05:38:50;;;;;;;72.07;39.35;;;10.10;99.90;;;;;;5094615;28;20020;-68
2021/11/20 05:41:16;;;;;;;82.82;40.28;;;10.10;99.90;;;;;;5094813;28;20063;-68
2021/11/20 05:43:42;;;;;;;75.25;41.13;;;10.10;99.90;;;;;;5092955;28;20118;-68
2021/11/20 05:46:11;;;;;;;77.57;41.75;;;10.10;99.90;;;;;;5092933;28;20056;-68
2021/11/20 05:48:37;;;;;;;81.13;40.60;;;10.20;99.90;;;;;;5094466;28;20023;-68
2021/11/20 05:51:03;;;;;;;75.55;40.08;;;10.10;99.90;;;;;;5094297;28;20020;-68
2021/11/20 05:53:29;;;;;;;74.55;41.10;;;10.10;99.90;;;;;;5094352;28;20080;-68
2021/11/20 05:55:58;;;;;;;74.50;39.88;;;10.10;99.90;;;;;;5094611;28;20020;-68
2021/11/20 05:58:24;;;;;;;78.55;40.13;;;10.10;99.90;;;;;;5094271;28;20376;-68
2021/11/20 06:00:53;;;;;;;74.57;39.55;;;10.10;99.90;;;;;;5110028;28;20077;-68
2021/11/20 06:03:20;;;;;;;76.15;39.45;;;10.10;99.90;;;;;;5093445;28;20026;-68
2021/11/20 06:05:47;;;;;;;75.22;40.10;;;10.10;99.90;;;;;;5092728;28;20035;-66
2021/11/20 06:08:14;;;;;;;68.85;37.83;;;10.10;99.90;;;;;;5094387;28;20028;-68
2021/11/20 06:10:42;;;;;;;74.50;39.58;;;10.10;99.90;;;;;;5093756;28;20385;-68
2021/11/20 06:13:09;;;;;;;72.50;37.97;;;10.10;99.90;;;;;;5094320;28;20077;-68
2021/11/20 06:15:35;;;;;;;67.20;37.40;;;10.10;99.90;;;;;;5094284;28;20445;-68
2021/11/20 06:18:01;;;;;;;71.47;38.38;;;10.10;99.90;;;;;;5093116;28;20103;-68
2021/11/20 06:20:27;;;;;;;68.43;37.78;;;10.10;99.90;;;;;;5094204;28;20020;-68
2021/11/20 06:22:54;;;;;;;72.70;38.67;;;10.10;99.90;;;;;;5093922;28;20024;-67
2021/11/20 06:25:20;;;;;;;72.15;36.95;;;10.10;99.90;;;;;;5094229;28;20070;-67
2021/11/20 06:27:46;;;;;;;71.53;36.92;;;10.10;99.90;;;;;;5093884;28;20469;-66
2021/11/20 06:30:15;;;;;;;64.13;36.47;;;10.10;99.90;;;;;;5093572;28;20039;-68
2021/11/20 06:32:40;;;;;;;60.85;34.95;;;10.10;99.90;;;;;;5093851;28;20454;-67
2021/11/20 06:35:11;;;;;;;62.25;35.50;;;10.10;99.90;;;;;;5093818;28;20030;-68
2021/11/20 06:37:39;;;;;;;57.97;34.38;;;10.10;99.90;;;;;;5092241;28;20021;-68
2021/11/20 06:40:08;;;;;;;66.45;36.35;;;10.10;99.90;;;;;;5092243;28;20020;-68
2021/11/20 06:42:33;;;;;;;66.80;36.65;;;10.10;99.90;;;;;;5093724;28;20406;-68
2021/11/20 06:44:59;;;;;;;61.95;34.13;;;10.10;99.90;;;;;;5092550;28;20050;-68
2021/11/20 06:47:24;;;;;;;62.13;35.50;;;10.10;99.90;;;;;;5092513;28;20032;-68
2021/11/20 06:49:50;;;;;;;65.32;35.75;;;10.10;99.90;;;;;;5093950;28;20450;-67
2021/11/20 06:52:16;;;;;;;63.80;35.15;;;10.10;99.90;;;;;;5093868;28;20422;-67
2021/11/20 06:54:42;;;;;;;64.00;37.35;;;10.00;99.90;;;;;;5093891;28;20059;-68
2021/11/20 06:57:10;;;;;;;61.83;35.53;;;10.00;99.90;;;;;;5093874;28;20013;-67
2021/11/20 07:02:33;;;;;;;62.63;36.00;;;10.00;99.90;;;;;;5112170;27;20388;-66
2021/11/20 07:05:00;;;;;;;63.83;36.85;;;10.00;99.90;;;;;;5110466;28;20544;-66
2021/11/20 07:07:27;;;;;;;72.88;37.95;;;10.00;99.90;;;;;;5111895;28;20043;-67
2021/11/20 07:09:53;;;;;;;65.25;36.83;;;10.10;99.90;;;;;;5111558;28;20397;-67
2021/11/20 07:12:19;;;;;;;65.25;36.55;;;10.00;99.90;;;;;;5109996;28;20015;-67
2021/11/20 07:14:45;;;;;;;65.03;36.85;;;10.10;99.90;;;;;;5111478;28;20468;-66
2021/11/20 07:17:12;;;;;;;65.35;38.30;;;10.00;99.90;;;;;;5111407;28;20024;-66
2021/11/20 07:19:38;;;;;;;67.40;36.95;;;10.10;99.90;;;;;;5111418;28;20023;-66
2021/11/20 07:22:04;;;;;;;65.63;37.70;;;10.10;99.90;;;;;;5111540;28;20020;-66
2021/11/20 07:24:29;;;;;;;66.80;38.25;;;10.10;99.90;;;;;;5110122;28;20024;-66
2021/11/20 07:26:55;;;;;;;69.57;38.25;;;10.10;99.90;;;;;;5111506;28;20031;-67
2021/11/20 07:29:20;;;;;;;67.00;37.72;;;10.10;99.90;;;;;;5110932;28;20022;-68
2021/11/20 07:31:46;;;;;;;69.50;38.63;;;10.10;99.90;;;;;;5111419;28;20028;-66
2021/11/20 07:34:13;;;;;;;73.25;38.90;;;10.10;99.90;;;;;;5110833;28;20064;-66
2021/11/20 07:36:40;;;;;;;70.80;39.30;;;10.10;99.90;;;;;;5109662;28;20016;-67
2021/11/20 07:39:10;;;;;;;70.70;39.90;;;10.10;99.90;;;;;;5110321;28;20024;-67
2021/11/20 07:41:36;;;;;;;70.80;38.95;;;10.10;99.90;;;;;;5111187;28;20020;-67
2021/11/20 07:44:02;;;;;;;72.95;39.10;;;10.10;99.90;;;;;;5110243;28;20016;-67
2021/11/20 07:46:28;;;;;;;75.60;40.03;;;10.10;99.90;;;;;;5110876;28;20526;-67
2021/11/20 07:48:55;;;;;;;72.50;38.88;;;10.20;99.90;;;;;;5109825;28;20028;-67
2021/11/20 07:51:21;;;;;;;73.53;39.20;;;10.20;99.90;;;;;;5109230;28;20023;-66
2021/11/20 07:53:47;;;;;;;74.00;38.00;;;10.20;99.90;;;;;;5110719;28;20431;-67
2021/11/20 07:56:15;;;;;;;76.05;38.67;;;10.20;99.90;;;;;;5110662;28;20034;-67
2021/11/20 07:58:41;;;;;;;75.03;39.05;;;10.10;99.90;;;;;;5110639;28;20016;-67
2021/11/20 08:01:08;;;;;;;76.30;40.25;;;10.20;99.90;;;;;;5109004;28;20055;-67
2021/11/20 08:03:34;;;;;;;74.13;39.30;;;10.20;99.90;;;;;;5110752;28;20396;-67
2021/11/20 08:06:00;;;;;;;77.28;40.03;;;10.20;99.90;;;;;;5110756;28;20016;-67
2021/11/20 08:08:26;;;;;;;70.72;37.72;;;10.20;99.90;;;;;;5110679;28;20024;-67
2021/11/20 08:10:52;;;;;;;74.97;39.25;;;10.20;99.90;;;;;;5110142;28;20099;-67
2021/11/20 08:13:19;;;;;;;78.50;38.67;;;10.20;99.90;;;;;;5097947;28;20111;-67
2021/11/20 08:15:46;;;;;;;76.13;38.63;;;10.20;99.90;;;;;;5096447;28;20532;-67
2021/11/20 08:18:12;;;;;;;76.97;38.78;;;10.20;99.90;;;;;;5078399;28;20146;-67
2021/11/20 08:20:41;;;;;;;77.60;38.33;;;10.20;99.90;;;;;;5096847;28;20114;-67
2021/11/20 08:23:09;;;;;;;71.50;37.53;;;10.20;99.90;;;;;;5096619;28;20024;-67
2021/11/20 08:25:38;;;;;;;73.10;38.30;;;10.20;99.90;;;;;;5096807;28;20047;-67
2021/11/20 08:28:05;;;;;;;82.38;38.78;;;10.30;99.90;;;;;;5096760;28;20370;-67
2021/11/20 08:30:31;;;;;;;68.60;36.08;;;10.30;99.90;;;;;;5096458;28;20024;-67
2021/11/20 08:32:59;;;;;;;78.35;39.42;;;10.30;99.90;;;;;;5095191;28;20059;-67
2021/11/20 08:35:27;;;;;;;71.57;36.78;;;10.30;99.90;;;;;;5095218;28;20020;-67
2021/11/20 08:37:53;;;;;;;72.38;37.63;;;10.30;99.90;;;;;;5096621;28;20097;-67
2021/11/20 08:40:24;;;;;;;71.38;36.15;;;10.40;99.90;;;;;;5096220;28;20366;-67
2021/11/20 08:42:50;;;;;;;73.05;37.17;;;10.30;99.90;;;;;;5094914;28;20025;-67
2021/11/20 08:45:19;;;;;;;72.10;37.22;;;10.30;99.90;;;;;;5096369;28;20027;-67
2021/11/20 08:47:46;;;;;;;73.68;38.05;;;10.40;99.90;;;;;;5094565;28;20391;-67
2021/11/20 08:50:16;;;;;;;72.97;38.70;;;10.30;99.90;;;;;;5094870;28;20020;-67
2021/11/20 08:52:42;;;;;;;76.60;39.20;;;10.40;99.90;;;;;;5096334;28;20020;-67
2021/11/20 08:55:10;;;;;;;73.68;38.60;;;10.40;99.90;;;;;;5096169;28;20026;-67
2021/11/20 08:57:35;;;;;;;72.43;38.97;;;10.50;99.90;;;;;;5096182;28;20359;-67
2021/11/20 09:00:07;;;;;;;75.90;39.80;;;10.50;99.90;;;;;;5095513;28;20036;-67
2021/11/20 09:02:39;;;;;;;71.60;38.88;;;10.50;99.90;;;;;;5096084;28;20429;-67
2021/11/20 09:05:28;;;;;;;78.00;39.50;;;10.50;99.90;;;;;;5077347;28;20032;-67
2021/11/20 09:08:04;;;;;;;80.05;39.85;;;10.60;99.90;;;;;;5080694;28;20028;-67
2021/11/20 09:10:56;;;;;;;78.57;39.92;;;10.60;99.90;;;;;;5095995;28;20350;-67
2021/11/20 09:13:30;;;;;;;75.80;40.05;;;10.60;99.90;;;;;;5095110;28;20035;-67
2021/11/20 09:16:01;;;;;;;77.88;42.03;;;10.70;99.90;;;;;;5095599;28;20024;-67
2021/11/20 09:18:29;;;;;;;77.43;41.90;;;10.70;99.90;;;;;;5094128;28;20028;-67
2021/11/20 09:20:55;;;;;;;81.70;42.88;;;10.70;99.90;;;;;;5095715;28;20028;-67
2021/11/20 09:23:22;;;;;;;83.43;43.15;;;10.60;99.90;;;;;;5095331;28;20021;-67
2021/11/20 09:25:49;;;;;;;81.47;41.65;;;10.60;99.90;;;;;;5094720;28;20502;-67
2021/11/20 09:28:16;;;;;;;80.60;42.47;;;10.70;99.90;;;;;;5093980;28;20048;-67
2021/11/20 09:30:46;;;;;;;73.30;39.58;;;10.70;99.90;;;;;;5076808;28;20389;-67
2021/11/20 09:33:13;;;;;;;75.60;40.90;;;10.70;99.90;;;;;;5095147;28;20411;-67
2021/11/20 09:35:41;;;;;;;76.63;40.28;;;10.70;99.90;;;;;;5095398;28;20024;-67
2021/11/20 09:38:07;;;;;;;80.50;41.67;;;10.70;99.90;;;;;;5095292;28;20414;-67
2021/11/20 09:40:37;;;;;;;74.82;39.53;;;10.70;99.90;;;;;;5093349;28;20028;-67
2021/11/20 09:43:05;;;;;;;76.78;38.45;;;10.70;99.90;;;;;;5095332;28;20017;-67
2021/11/20 09:45:45;;;;;;;77.25;37.45;;;10.70;99.90;;;;;;5093994;28;20020;-67
2021/11/20 09:48:17;;;;;;;75.80;38.65;;;10.70;99.90;;;;;;5095172;28;20016;-67
2021/11/20 09:50:57;;;;;;;69.55;37.65;;;10.70;99.90;;;;;;5095186;28;20053;-67
2021/11/20 09:53:23;;;;;;;67.30;35.65;;;10.70;99.90;;;;;;5094999;28;20024;-67
2021/11/20 09:55:56;;;;;;;70.57;37.42;;;10.80;99.90;;;;;;5095029;28;20021;-67
2021/11/20 09:58:28;;;;;;;71.25;36.60;;;10.70;99.90;;;;;;5093599;28;20038;-67
2021/11/20 10:01:13;;;;;;;68.37;34.77;;;10.80;99.90;;;;;;5094096;28;20489;-67
2021/11/20 10:03:49;;;;;;;68.30;34.85;;;10.80;99.90;;;;;;5094851;28;20012;-67
2021/11/20 10:06:34;;;;;;;70.80;35.63;;;10.80;99.90;;;;;;5094812;28;20027;-67
2021/11/20 10:09:11;;;;;;;70.97;36.38;;;10.80;99.90;;;;;;5093024;28;20023;-67
2021/11/20 10:14:19;;;;;;;65.75;35.63;;;10.80;99.90;;;;;;5071634;28;20783;-67
2021/11/20 10:16:55;;;;;;;76.28;36.53;;;10.90;99.90;;;;;;5071298;28;20064;-68
2021/11/20 10:22:16;;;;;;;68.80;37.10;;;10.90;99.90;;;;;;5112110;27;20380;-67
2021/11/20 10:25:15;;;;;;;70.63;37.67;;;11.00;99.90;;;;;;5111887;28;20032;-66
2021/11/20 10:27:57;;;;;;;70.75;37.03;;;10.90;99.90;;;;;;5111363;28;20261;-66
2021/11/20 10:30:51;;;;;;;67.45;34.70;;;10.90;99.90;;;;;;5111693;28;20458;-66
2021/11/20 10:33:28;;;;;;;73.05;36.33;;;10.90;99.90;;;;;;5111153;28;20031;-66
2021/11/20 10:36:21;;;;;;;72.07;37.08;;;10.90;99.90;;;;;;5111580;28;20069;-66
2021/11/20 10:39:14;;;;;;;71.18;36.47;;;10.90;99.90;;;;;;5111593;28;20450;-66
2021/11/20 10:41:51;;;;;;;71.32;36.22;;;10.90;99.90;;;;;;5109653;28;20034;-67
2021/11/20 10:44:25;;;;;;;72.15;37.00;;;10.90;99.90;;;;;;5111448;28;20054;-66
2021/11/20 10:50:10;;;;;;;69.93;36.45;;;10.90;99.90;;;;;;5111987;27;20299;-68
2021/11/20 10:53:08;;;;;;;68.78;35.75;;;10.90;99.90;;;;;;5111489;28;20103;-68
2021/11/20 10:55:56;;;;;;;66.43;36.50;;;11.00;99.90;;;;;;5111224;28;20024;-68
2021/11/20 10:58:49;;;;;;;71.15;37.60;;;11.00;99.90;;;;;;5111146;28;20085;-68
2021/11/20 11:01:54;;;;;;;69.38;38.70;;;10.90;99.90;;;;;;5110093;28;20142;-67
2021/11/20 11:04:51;;;;;;;69.43;37.03;;;11.00;99.90;;;;;;5111007;27;20020;-68
2021/11/20 11:07:25;;;;;;;70.60;38.30;;;11.00;99.90;;;;;;5109695;28;20380;-68
2021/11/20 11:09:57;;;;;;;67.70;36.88;;;10.90;99.90;;;;;;5110999;28;20082;-67
2021/11/20 11:12:40;;;;;;;67.00;37.33;;;10.90;99.90;;;;;;5111378;28;20027;-67
2021/11/20 11:15:11;;;;;;;71.00;37.85;;;10.90;99.90;;;;;;5109547;28;20024;-68
2021/11/20 11:18:04;;;;;;;66.68;35.60;;;10.90;99.90;;;;;;5111038;28;20119;-67
2021/11/20 11:21:10;;;;;;;69.73;38.33;;;10.90;99.90;;;;;;5110743;28;20380;-68
2021/11/20 11:23:47;;;;;;;70.40;36.47;;;10.90;99.90;;;;;;5110618;27;20020;-68
2021/11/20 11:26:16;;;;;;;69.68;37.95;;;10.80;99.90;;;;;;5111245;28;20044;-68
2021/11/20 11:28:57;;;;;;;66.90;35.13;;;10.80;99.90;;;;;;5109645;28;20032;-68
2021/11/20 11:31:31;;;;;;;68.43;38.15;;;10.80;99.90;;;;;;5109514;28;20024;-67
2021/11/20 11:34:18;;;;;;;69.75;36.25;;;10.80;99.90;;;;;;5111120;28;20469;-67
2021/11/20 11:36:55;;;;;;;68.07;35.67;;;10.80;99.90;;;;;;5110997;28;20024;-68
2021/11/20 11:39:50;;;;;;;62.15;35.95;;;10.80;99.90;;;;;;5110733;28;20067;-68
2021/11/20 11:42:44;;;;;;;63.20;35.47;;;10.80;99.90;;;;;;5110876;28;20019;-68
2021/11/20 11:45:50;;;;;;;56.30;32.88;;;10.90;99.90;;;;;;5110836;28;20026;-68
2021/11/20 11:48:55;;;;;;;52.72;31.60;;;10.90;99.90;;;;;;5109823;28;20131;-68
2021/11/20 11:52:01;;;;;;;54.17;31.25;;;10.90;99.90;;;;;;5110023;27;20024;-67
2021/11/20 11:54:38;;;;;;;53.03;31.23;;;10.90;99.90;;;;;;5110165;27;20508;-68
2021/11/20 11:57:22;;;;;;;51.40;29.50;;;10.90;99.90;;;;;;5110654;28;20557;-68
2021/11/20 12:00:14;;;;;;;56.58;32.47;;;10.90;99.90;;;;;;5104700;28;20439;-68
2021/11/20 12:02:48;;;;;;;54.17;31.50;;;10.90;99.90;;;;;;5095490;28;20020;-67
2021/11/20 12:05:34;;;;;;;51.90;30.63;;;10.90;99.90;;;;;;5096816;28;20020;-68
2021/11/20 12:08:23;;;;;;;49.95;30.65;;;10.90;99.90;;;;;;5096808;28;20044;-68
2021/11/20 12:11:07;;;;;;;46.00;28.88;;;10.90;99.90;;;;;;5096675;28;20074;-68
2021/11/20 12:13:42;;;;;;;48.58;29.92;;;10.90;99.90;;;;;;5094861;28;20020;-68
2021/11/20 12:19:08;;;;;;;55.80;32.63;;;10.90;99.90;;;;;;5114935;27;1160368;-68
2021/11/20 12:21:57;;;;;;;58.97;34.25;;;10.90;99.90;;;;;;5130291;28;20092;-66
2021/11/20 12:24:31;;;;;;;61.13;35.90;;;10.80;99.90;;;;;;5130783;28;20020;-67
2021/11/20 12:30:24;;;;;;;66.10;37.60;;;10.80;99.90;;;;;;5174157;27;20910;-67
2021/11/20 12:33:26;;;;;;;69.13;39.13;;;10.80;99.90;;;;;;5173573;27;20050;-68
2021/11/20 12:36:16;;;;;;;67.93;38.53;;;10.80;99.90;;;;;;5154618;27;20113;-67
2021/11/20 12:38:55;;;;;;;63.00;38.53;;;10.80;99.90;;;;;;5173037;27;20022;-67
2021/11/20 12:42:01;;;;;;;66.18;38.67;;;10.70;99.90;;;;;;5173105;27;20471;-67
2021/11/20 12:44:46;;;;;;;62.67;35.63;;;10.70;99.90;;;;;;5172932;27;20113;-67
2021/11/20 12:47:52;;;;;;;59.47;36.75;;;10.70;99.90;;;;;;5157290;27;20030;-67
2021/11/20 12:50:54;;;;;;;60.35;36.08;;;10.70;99.90;;;;;;5154273;27;20068;-67
2021/11/20 12:53:28;;;;;;;57.75;36.70;;;10.70;99.90;;;;;;5172764;27;20031;-68
2021/11/20 12:59:13;;;;;;;64.88;38.53;;;10.70;99.90;;;;;;5111364;27;20400;-67
2021/11/20 13:01:45;;;;;;;67.20;40.05;;;10.70;99.90;;;;;;5111262;28;20019;-68
2021/11/20 13:04:15;;;;;;;66.88;38.78;;;10.60;99.90;;;;;;5111557;28;20496;-68
2021/11/20 13:06:50;;;;;;;64.45;38.13;;;10.70;99.90;;;;;;5111557;28;20051;-66
2021/11/20 13:12:08;;;;;;;65.45;38.10;;;10.60;99.90;;;;;;5114732;27;1171978;-67
2021/11/20 13:18:04;;;;;;;69.07;40.03;;;10.60;99.90;;;;;;5070964;28;20880;-66
2021/11/20 13:20:36;;;;;;;64.32;38.00;;;10.60;99.90;;;;;;5086290;28;20037;-68
2021/11/20 13:23:08;;;;;;;62.33;37.08;;;10.60;99.90;;;;;;5069831;28;20462;-66
2021/11/20 13:25:44;;;;;;;66.20;39.83;;;10.60;99.90;;;;;;5071200;28;20063;-67
2021/11/20 13:28:10;;;;;;;69.05;40.22;;;10.60;99.90;;;;;;5069998;28;20537;-66